Time;durP1;ratioP1;P1;durP2;ratioP2;P2;SDS_P1;SDS_P2;PMS_P1;PMS_P2;Temp;Humidity;BMP_temperature;BMP_pressure;BME280_temperature;BME280_humidity;BME280_pressure;Samples;Min_cycle;Max_cycle;Signal;HPM_P1;HPM_P2
2022/08/19 00:02:09;;;;;;;2.53;0.80;;;;;;;18.39;100.00;97837.59;5018423;28;20083;-58
2022/08/19 00:04:36;;;;;;;2.78;0.90;;;;;;;18.42;100.00;97824.03;5014632;28;20714;-57
2022/08/19 00:07:05;;;;;;;1.80;0.63;;;;;;;18.32;100.00;97815.00;5014461;28;20612;-58
2022/08/19 00:09:31;;;;;;;;;;;;;;;18.34;99.82;97820.84;5002545;28;20025;-58
2022/08/19 00:11:57;;;;;;;2.50;0.70;;;;;;;18.31;100.00;97797.56;5015885;28;19917;-58
2022/08/19 00:14:26;;;;;;;2.72;0.90;;;;;;;18.24;100.00;97802.91;5012224;28;20045;-58
2022/08/19 00:16:54;;;;;;;1.73;0.65;;;;;;;18.32;100.00;97828.94;5019311;28;20057;-58
2022/08/19 00:19:20;;;;;;;1.85;0.60;;;;;;;18.31;100.00;97829.97;5021997;28;20115;-59
2022/08/19 00:21:46;;;;;;;2.70;0.80;;;;;;;18.33;100.00;97827.94;5023081;28;20026;-59
2022/08/19 00:24:13;;;;;;;2.17;1.17;;;;;;;18.35;100.00;97833.78;5020222;28;20539;-58
2022/08/19 00:26:39;;;;;;;2.75;0.80;;;;;;;18.33;100.00;97833.22;5013533;28;20065;-58
2022/08/19 00:29:06;;;;;;;4.28;0.90;;;;;;;18.28;100.00;97827.78;5017481;28;20030;-58
2022/08/19 00:31:31;;;;;;;4.93;1.10;;;;;;;18.24;100.00;97832.66;5019252;28;20428;-58
2022/08/19 00:33:57;;;;;;;2.80;0.75;;;;;;;18.29;100.00;97828.56;5017934;28;20022;-58
2022/08/19 00:36:23;;;;;;;2.83;0.90;;;;;;;17.80;100.00;97749.38;5019624;28;20625;-57
2022/08/19 00:38:49;;;;;;;1.92;0.75;;;;;;;18.28;100.00;97822.50;5000003;28;20045;-58
2022/08/19 00:41:20;;;;;;;3.45;1.00;;;;;;;18.17;100.00;97812.66;5025551;28;20021;-58
2022/08/19 00:44:14;;;;;;;3.13;0.90;;;;;;;18.11;100.00;97803.81;5006393;28;20152;-58
2022/08/19 00:46:42;;;;;;;4.97;0.90;;;;;;;18.22;100.00;97813.66;5021455;28;20041;-57
2022/08/19 00:49:21;;;;;;;2.53;0.85;;;;;;;18.18;100.00;97816.91;5021725;28;20052;-59
2022/08/19 00:51:50;;;;;;;2.78;0.90;;;;;;;18.25;100.00;97810.59;5010810;28;20048;-57
2022/08/19 00:54:16;;;;;;;4.18;1.08;;;;;;;17.97;100.00;97768.09;5001626;28;20686;-57
2022/08/19 00:56:42;;;;;;;2.10;0.70;;;;;;;18.30;100.00;97822.28;5008375;28;20033;-58
2022/08/19 00:59:08;;;;;;;2.97;0.90;;;;;;;18.29;100.00;97828.56;5023734;28;20041;-58
2022/08/19 01:01:38;;;;;;;2.97;0.95;;;;;;;18.22;100.00;97824.16;5011641;28;20556;-58
2022/08/19 01:04:04;;;;;;;3.33;0.70;;;;;;;18.24;100.00;97832.66;5022634;28;20049;-58
2022/08/19 01:06:32;;;;;;;4.25;1.02;;;;;;;18.24;100.00;97840.53;5015152;28;20417;-58
2022/08/19 01:08:58;;;;;;;1.95;0.80;;;;;;;18.21;100.00;97822.53;5015658;28;20361;-58
2022/08/19 01:11:23;;;;;;;4.55;1.15;;;;;;;18.16;100.00;97809.25;5004850;28;20431;-59
2022/08/19 01:13:50;;;;;;;4.10;1.02;;;;;;;18.15;100.00;97812.88;5001654;28;20076;-59
2022/08/19 01:16:17;;;;;;;3.45;0.90;;;;;;;18.18;100.00;97807.19;5013526;28;20499;-58
2022/08/19 01:18:43;;;;;;;3.25;0.75;;;;;;;18.17;100.00;97813.47;4997196;28;20037;-58
2022/08/19 01:21:20;;;;;;;3.25;1.10;;;;;;;18.21;100.00;97805.97;5021554;28;20356;-58
2022/08/19 01:23:46;;;;;;;3.97;1.00;;;;;;;18.18;100.00;97796.69;5019378;28;20029;-58
2022/08/19 01:26:18;;;;;;;3.10;0.90;;;;;;;18.20;100.00;97804.38;5005485;28;20094;-57
2022/08/19 01:28:45;;;;;;;3.33;0.70;;;;;;;18.25;100.00;97802.69;5012614;28;20021;-58
2022/08/19 01:31:14;;;;;;;3.13;0.90;;;;;;;18.05;100.00;97767.81;5009055;28;20022;-57
2022/08/19 01:33:39;;;;;;;2.75;0.70;;;;;;;18.24;100.00;97798.44;5013259;28;20095;-58
2022/08/19 01:36:12;;;;;;;3.67;0.85;;;;;;;18.02;100.00;97763.78;5016402;28;20029;-58
2022/08/19 01:38:39;;;;;;;4.53;1.00;;;;;;;18.28;100.00;97801.47;5014997;28;20761;-58
2022/08/19 01:41:05;;;;;;;3.53;1.02;;;;;;;18.32;100.00;97793.94;5015712;28;20036;-57
2022/08/19 01:43:32;;;;;;;2.88;0.88;;;;;;;18.39;100.00;97792.88;5018669;28;20408;-58
2022/08/19 01:45:57;;;;;;;4.03;1.00;;;;;;;18.15;100.00;97752.38;5022783;28;20025;-58
2022/08/19 01:48:23;;;;;;;3.65;1.27;;;;;;;18.29;100.00;97771.50;5021167;28;20201;-58
2022/08/19 01:50:48;;;;;;;4.20;0.90;;;;;;;18.21;100.00;97777.81;5021848;28;20381;-59
2022/08/19 01:53:14;;;;;;;4.00;0.80;;;;;;;18.25;100.00;97778.19;5001823;28;20048;-58
2022/08/19 01:55:41;;;;;;;3.58;0.77;;;;;;;18.23;100.00;97765.28;5021075;28;20520;-58
2022/08/19 01:58:20;;;;;;;2.53;0.90;;;;;;;18.28;100.00;97769.88;5000645;28;20037;-58
2022/08/19 02:00:45;;;;;;;3.45;0.90;;;;;;;18.23;100.00;97757.38;5016447;28;20025;-59
2022/08/19 02:03:11;;;;;;;3.72;0.93;;;;;;;18.14;100.00;97748.13;5018692;28;20040;-59
2022/08/19 02:05:37;;;;;;;4.18;1.02;;;;;;;17.94;100.00;97726.44;5020540;28;20025;-57
2022/08/19 02:08:03;;;;;;;2.50;0.90;;;;;;;18.24;100.00;97768.72;5005692;28;20029;-58
2022/08/19 02:10:28;;;;;;;2.72;0.90;;;;;;;18.17;100.00;97779.28;5016977;28;20044;-57
2022/08/19 02:12:54;;;;;;;5.00;1.02;;;;;;;18.14;100.00;97763.91;5020891;28;20021;-59
2022/08/19 02:15:19;;;;;;;2.50;0.80;;;;;;;18.15;100.00;97768.16;5023008;28;20029;-59
2022/08/19 02:17:45;;;;;;;2.80;0.80;;;;;;;17.90;100.00;97730.50;5001551;28;20148;-58
2022/08/19 02:20:12;;;;;;;2.65;0.80;;;;;;;18.16;100.00;97761.88;5003994;28;20033;-56
2022/08/19 02:22:41;;;;;;;3.03;1.08;;;;;;;18.15;100.00;97768.16;5020559;28;20048;-57
2022/08/19 02:25:07;;;;;;;5.25;1.10;;;;;;;18.13;100.00;97778.09;5022014;28;20033;-57
2022/08/19 02:27:33;;;;;;;2.45;0.82;;;;;;;18.17;100.00;97779.28;5011312;28;20033;-57
2022/08/19 02:29:59;;;;;;;3.10;0.90;;;;;;;18.12;100.00;97779.09;5020579;28;20034;-57
2022/08/19 02:32:24;;;;;;;4.28;0.90;;;;;;;18.09;100.00;97773.47;5020793;28;20029;-57
2022/08/19 02:34:49;;;;;;;5.88;1.13;;;;;;;18.03;100.00;97772.50;5023594;28;20029;-56
2022/08/19 02:39:59;;;;;;;2.92;0.90;;;;;;;18.01;100.00;97771.91;5019601;28;20177;-57
2022/08/19 02:42:24;;;;;;;5.03;1.05;;;;;;;18.04;100.00;97759.13;5002927;28;20739;-57
2022/08/19 02:44:51;;;;;;;3.55;0.82;;;;;;;18.06;100.00;97764.19;5021430;28;20053;-57
2022/08/19 02:47:18;;;;;;;3.33;1.00;;;;;;;18.04;100.00;97758.34;5021757;28;20075;-57
2022/08/19 02:49:44;;;;;;;2.30;0.73;;;;;;;17.88;100.00;97740.44;5021022;28;20044;-57
2022/08/19 02:52:11;;;;;;;3.92;0.88;;;;;;;18.01;100.00;97759.53;5024730;28;20018;-56
2022/08/19 02:54:38;;;;;;;2.63;0.95;;;;;;;18.01;100.00;97748.22;5021146;28;20428;-56
2022/08/19 02:57:04;;;;;;;2.35;0.77;;;;;;;18.00;100.00;97751.91;5037006;28;20033;-57
2022/08/19 02:59:30;;;;;;;3.88;1.17;;;;;;;17.75;100.00;97707.91;5003367;28;20119;-56
2022/08/19 03:01:56;;;;;;;4.38;0.77;;;;;;;18.00;100.00;97742.16;5019097;28;20018;-57
2022/08/19 03:04:22;;;;;;;3.08;0.95;;;;;;;17.99;100.00;97737.91;5019621;28;20030;-57
2022/08/19 03:06:48;;;;;;;1.85;0.70;;;;;;;18.04;100.00;97729.41;5021102;28;20496;-57
2022/08/19 03:09:14;;;;;;;4.38;1.00;;;;;;;18.03;100.00;97730.41;5001767;28;20135;-57
2022/08/19 03:11:40;;;;;;;3.67;0.80;;;;;;;17.96;100.00;97734.91;5020259;28;20018;-56
2022/08/19 03:14:08;;;;;;;3.85;1.10;;;;;;;17.94;100.00;97721.16;5006516;28;20059;-57
2022/08/19 03:16:36;;;;;;;3.53;0.95;;;;;;;17.92;100.00;97729.25;5019380;28;20174;-57
2022/08/19 03:19:02;;;;;;;4.53;1.23;;;;;;;17.93;100.00;97724.84;5021227;28;20035;-56
2022/08/19 03:21:31;;;;;;;3.58;0.90;;;;;;;17.98;100.00;97720.53;5019452;28;20033;-58
2022/08/19 03:23:59;;;;;;;3.40;0.90;;;;;;;17.93;100.00;97715.13;5019970;28;20053;-58
2022/08/19 03:26:25;;;;;;;3.40;1.10;;;;;;;17.97;100.00;97723.38;5018228;28;20691;-57
2022/08/19 03:28:50;;;;;;;2.35;0.88;;;;;;;17.90;100.00;97712.09;5020687;28;20033;-56
2022/08/19 03:31:22;;;;;;;2.65;0.80;;;;;;;17.97;100.00;97726.00;4998818;28;20022;-57
2022/08/19 03:33:49;;;;;;;3.92;1.05;;;;;;;17.98;100.00;97730.22;5025963;28;20029;-57
2022/08/19 03:36:17;;;;;;;3.90;0.80;;;;;;;17.97;100.00;97724.19;5019163;28;20140;-57
2022/08/19 03:38:45;;;;;;;2.57;0.80;;;;;;;17.98;100.00;97735.50;5017628;28;20053;-57
2022/08/19 03:41:17;;;;;;;2.25;0.60;;;;;;;18.00;100.00;97728.22;5017116;28;20049;-57
2022/08/19 03:43:46;;;;;;;3.22;0.80;;;;;;;18.03;99.92;97741.75;5010489;28;20036;-56
2022/08/19 03:46:14;;;;;;;4.80;0.90;;;;;;;18.01;98.74;97740.34;5019278;28;20029;-57
2022/08/19 03:48:41;;;;;;;3.78;1.08;;;;;;;17.95;98.23;97717.53;5016110;28;20022;-57
2022/08/19 03:51:07;;;;;;;1.30;0.60;;;;;;;17.86;98.73;97715.16;5019638;28;20030;-56
2022/08/19 03:53:34;;;;;;;5.82;1.00;;;;;;;18.08;97.38;97754.25;5018028;28;20021;-56
2022/08/19 03:55:59;;;;;;;3.20;0.80;;;;;;;18.11;97.24;97764.34;5018776;28;20034;-57
2022/08/19 03:58:28;;;;;;;2.63;0.85;;;;;;;18.13;96.82;97767.56;5023900;28;20022;-57
2022/08/19 04:00:55;;;;;;;2.20;0.70;;;;;;;17.60;94.74;97674.06;5021341;28;20056;-58
2022/08/19 04:03:20;;;;;;;3.45;0.82;;;;;;;18.22;95.13;97776.81;5022656;28;20631;-57
2022/08/19 04:05:46;;;;;;;4.03;0.80;;;;;;;18.20;96.33;97765.69;5017160;28;20530;-58
2022/08/19 04:08:12;;;;;;;2.33;0.82;;;;;;;18.21;96.10;97775.19;5024230;28;20040;-58
2022/08/19 04:10:38;;;;;;;4.32;0.80;;;;;;;17.95;96.23;97744.63;5006507;28;20029;-56
2022/08/19 04:13:05;;;;;;;2.85;0.73;;;;;;;18.23;97.87;97783.69;5021316;28;20044;-58
2022/08/19 04:15:35;;;;;;;3.38;0.82;;;;;;;18.20;97.94;97784.13;5023626;28;20045;-57
2022/08/19 04:18:01;;;;;;;3.85;1.00;;;;;;;18.28;95.92;97792.75;5005485;28;20047;-57
2022/08/19 04:20:26;;;;;;;3.95;0.73;;;;;;;18.25;95.33;97793.97;5021793;28;20041;-57
2022/08/19 04:22:51;;;;;;;2.63;0.80;;;;;;;18.30;97.16;97803.88;5021374;28;20123;-56
2022/08/19 04:25:17;;;;;;;2.78;0.80;;;;;;;17.98;97.85;97769.69;5020912;28;20121;-54
2022/08/19 04:27:46;;;;;;;3.60;0.70;;;;;;;18.09;99.93;97803.22;5034942;28;20542;-56
2022/08/19 04:30:12;;;;;;;4.13;1.00;;;;;;;17.98;100.00;97809.13;5037879;28;20113;-56
2022/08/19 04:32:38;;;;;;;3.25;0.85;;;;;;;17.94;100.00;97815.84;5028203;28;20051;-60
2022/08/19 04:35:04;;;;;;;7.10;1.02;;;;;;;17.92;100.00;97818.69;5022426;28;20687;-58
2022/08/19 04:37:33;;;;;;;2.72;0.80;;;;;;;17.90;100.00;97817.28;5023924;28;20067;-58
2022/08/19 04:42:53;;;;;;;1.90;0.70;;;;;;;17.86;100.00;97806.38;5008936;28;20061;-59
2022/08/19 04:45:19;;;;;;;4.30;1.02;;;;;;;17.95;99.37;97810.38;5025657;28;20074;-57
2022/08/19 04:47:44;;;;;;;2.60;0.73;;;;;;;17.72;100.00;97783.78;5005740;28;20396;-57
2022/08/19 04:50:11;;;;;;;3.15;0.73;;;;;;;17.85;99.30;97817.91;5022059;28;20041;-58
2022/08/19 04:52:41;;;;;;;3.05;0.80;;;;;;;17.94;97.48;97832.41;5017858;28;20473;-58
2022/08/19 04:55:08;;;;;;;1.92;0.70;;;;;;;18.00;98.49;97831.59;5005950;28;20373;-56
2022/08/19 04:57:33;;;;;;;4.65;0.85;;;;;;;17.95;98.75;97825.34;5019252;28;20740;-57
2022/08/19 04:59:59;;;;;;;2.25;0.80;;;;;;;17.93;100.00;97836.09;5022650;28;20045;-57
2022/08/19 05:02:25;;;;;;;3.47;0.75;;;;;;;17.96;100.00;97832.22;5021700;28;20029;-56
2022/08/19 05:04:51;;;;;;;3.28;0.80;;;;;;;17.73;99.91;97783.56;5022777;28;20038;-58
2022/08/19 05:07:16;;;;;;;3.85;1.00;;;;;;;17.78;100.00;97794.28;5021986;28;20048;-56
2022/08/19 05:09:42;;;;;;;4.60;0.88;;;;;;;18.01;100.00;97835.81;5028765;28;20029;-57
2022/08/19 05:12:08;;;;;;;3.33;1.10;;;;;;;17.98;100.00;97841.53;5016613;28;20395;-57
2022/08/19 05:14:33;;;;;;;2.33;0.75;;;;;;;17.98;100.00;97833.63;5016581;28;20033;-57
2022/08/19 05:17:00;;;;;;;5.50;1.25;;;;;;;17.96;100.00;97838.31;5015128;28;20552;-57
2022/08/19 05:24:54;;;;;;;2.72;0.70;;;;;;;17.96;100.00;97827.78;5015926;28;20055;-56
2022/08/19 05:27:20;;;;;;;3.08;0.80;;;;;;;17.91;100.00;97829.44;5014506;28;20021;-57
2022/08/19 05:29:45;;;;;;;2.35;0.85;;;;;;;17.68;100.00;97788.66;5023381;28;20029;-58
2022/08/19 05:32:10;;;;;;;5.20;1.00;;;;;;;18.01;100.00;97829.75;5018618;28;20036;-56
2022/08/19 05:34:37;;;;;;;2.67;0.80;;;;;;;17.98;100.00;97827.53;5014976;28;20400;-57
2022/08/19 05:37:04;;;;;;;3.10;0.77;;;;;;;18.02;100.00;97842.72;5014037;28;20759;-57
2022/08/19 05:39:33;;;;;;;3.90;0.80;;;;;;;17.87;100.00;97805.38;5016249;28;20056;-57
2022/08/19 05:42:00;;;;;;;2.17;0.80;;;;;;;18.06;100.00;97846.53;5014905;28;20026;-57
2022/08/19 05:44:31;;;;;;;3.10;0.95;;;;;;;18.08;100.00;97850.78;5000554;28;20133;-58
2022/08/19 05:46:57;;;;;;;3.88;0.90;;;;;;;18.01;100.00;97856.06;5013947;28;20057;-59
2022/08/19 05:49:25;;;;;;;2.70;0.77;;;;;;;17.96;100.00;97851.44;5012484;28;20063;-57
2022/08/19 05:51:51;;;;;;;2.60;0.80;;;;;;;17.93;100.00;97841.34;5010574;28;20520;-57
2022/08/19 05:54:17;;;;;;;2.42;0.70;;;;;;;18.01;100.00;97851.59;5017884;28;20144;-57
2022/08/19 05:56:43;;;;;;;2.40;0.70;;;;;;;18.10;100.00;97856.63;5013440;28;20039;-57
2022/08/19 05:59:11;;;;;;;5.45;1.00;;;;;;;17.93;100.00;97814.25;5011688;28;20037;-58
2022/08/19 06:01:42;;;;;;;4.35;0.90;;;;;;;18.21;100.00;97862.00;4999555;28;20021;-57
2022/08/19 06:04:07;;;;;;;2.47;0.80;;;;;;;18.03;100.00;97839.06;5008488;28;20428;-57
2022/08/19 06:06:34;;;;;;;2.65;0.90;;;;;;;18.25;100.00;97879.00;5005999;28;20014;-57
2022/08/19 06:09:02;;;;;;;3.03;0.90;;;;;;;18.28;100.00;97880.41;5008823;28;20128;-57
2022/08/19 06:11:59;;;;;;;4.30;0.90;;;;;;;18.34;100.00;97895.31;5016473;28;20101;-58
2022/08/19 06:14:27;;;;;;;5.70;1.80;;;;;;;18.36;100.00;97889.84;5000590;28;20175;-58
2022/08/19 06:16:52;;;;;;;4.53;1.13;;;;;;;18.07;100.00;97852.59;5013632;28;20026;-58
2022/08/19 06:19:20;;;;;;;5.20;1.00;;;;;;;18.27;100.00;97896.38;5019115;28;20775;-57
2022/08/19 06:21:48;;;;;;;3.95;1.00;;;;;;;18.28;99.22;97888.28;5017153;28;20030;-57
2022/08/19 06:24:15;;;;;;;3.13;1.05;;;;;;;18.36;99.95;97905.66;5004064;28;20075;-57
2022/08/19 06:26:43;;;;;;;3.83;0.85;;;;;;;18.37;99.84;97915.16;5014946;28;20103;-57
2022/08/19 06:29:10;;;;;;;4.53;0.82;;;;;;;18.46;99.18;97921.00;5016783;28;20573;-57
2022/08/19 06:31:36;;;;;;;3.75;1.10;;;;;;;18.47;99.44;97926.03;5010037;28;20089;-57
2022/08/19 06:34:04;;;;;;;3.35;0.95;;;;;;;18.51;98.81;97929.03;5018186;28;20029;-57
2022/08/19 06:36:34;;;;;;;4.57;1.00;;;;;;;18.51;99.66;97923.78;5024998;28;20036;-59
2022/08/19 06:39:13;;;;;;;2.13;0.70;;;;;;;18.73;98.79;97935.59;5019096;28;20045;-57
2022/08/19 06:41:41;;;;;;;1.88;0.70;;;;;;;18.61;99.54;97897.78;5014914;28;20570;-58
2022/08/19 06:44:07;;;;;;;3.75;1.00;;;;;;;18.82;99.05;97928.28;5019131;28;20029;-57
2022/08/19 06:46:32;;;;;;;4.05;0.98;;;;;;;18.93;99.81;97935.47;5016869;28;20357;-57
2022/08/19 06:48:58;;;;;;;4.22;1.10;;;;;;;18.93;97.99;97934.63;5019521;28;20464;-58
2022/08/19 06:51:24;;;;;;;3.78;1.20;;;;;;;18.97;97.33;97936.66;5015823;28;20042;-57
2022/08/19 06:53:51;;;;;;;5.30;0.98;;;;;;;18.94;96.92;97929.16;5017386;28;20088;-56
2022/08/19 06:56:19;;;;;;;6.65;1.05;;;;;;;18.96;97.25;97931.59;5012469;28;20030;-57
2022/08/19 06:58:46;;;;;;;3.50;0.90;;;;;;;18.88;96.51;97902.91;5016731;28;20040;-58
2022/08/19 07:01:12;;;;;;;4.15;0.95;;;;;;;19.00;95.51;97912.50;5010279;28;20025;-57
2022/08/19 07:03:39;;;;;;;3.40;0.80;;;;;;;19.20;96.02;97914.97;5015098;28;20583;-57
2022/08/19 07:06:10;;;;;;;2.67;1.05;;;;;;;19.01;95.34;97882.50;5018124;28;20044;-58
2022/08/19 07:08:36;;;;;;;6.15;1.25;;;;;;;19.36;94.27;97918.06;5014723;28;20029;-57
2022/08/19 07:11:06;;;;;;;5.82;1.30;;;;;;;19.53;94.11;97916.47;5017587;28;20033;-56
2022/08/19 07:13:36;;;;;;;4.40;1.30;;;;;;;19.55;93.49;97919.69;5011469;28;20163;-57
2022/08/19 07:16:05;;;;;;;3.88;1.20;;;;;;;19.71;92.22;97917.47;5019202;28;20037;-57
2022/08/19 07:18:31;;;;;;;;;;;;;;;19.84;92.11;97924.47;5019963;28;20032;-57
2022/08/19 07:21:16;;;;;;;5.60;1.00;;;;;;;19.90;91.52;97924.41;5015387;28;19920;-57
2022/08/19 07:23:43;;;;;;;3.35;1.17;;;;;;;19.87;92.10;97924.81;5021448;28;20284;-56
2022/08/19 07:26:11;;;;;;;3.42;1.10;;;;;;;19.85;90.68;97926.09;5019093;28;20745;-57
2022/08/19 07:28:39;;;;;;;2.58;1.00;;;;;;;19.58;91.03;97876.25;5019211;28;20090;-56
2022/08/19 07:31:10;;;;;;;5.60;1.73;;;;;;;19.77;89.64;97888.44;5021717;28;20626;-58
2022/08/19 07:33:36;;;;;;;4.10;1.20;;;;;;;19.73;90.25;97900.47;5019730;28;20044;-58
2022/08/19 07:36:06;;;;;;;2.50;0.95;;;;;;;19.93;88.09;97912.59;5018080;28;20392;-58
2022/08/19 07:38:32;;;;;;;3.25;1.10;;;;;;;19.77;88.07;97882.34;4994403;28;20060;-57
2022/08/19 07:40:58;;;;;;;2.72;1.10;;;;;;;20.03;87.50;97917.34;5015477;28;20026;-57
2022/08/19 07:43:25;;;;;;;4.95;1.50;;;;;;;19.96;87.97;97920.06;5009122;28;20045;-57
2022/08/19 07:45:52;;;;;;;4.30;1.30;;;;;;;19.91;88.04;97918.06;5015603;28;20461;-57
2022/08/19 07:48:18;;;;;;;4.43;1.30;;;;;;;19.72;88.27;97884.81;5018964;28;20043;-57
2022/08/19 07:50:43;;;;;;;3.80;1.17;;;;;;;19.87;87.11;97898.44;5020815;28;20407;-58
2022/08/19 07:53:09;;;;;;;4.22;1.40;;;;;;;19.97;86.68;97921.69;5019916;28;20496;-56
2022/08/19 07:55:34;;;;;;;3.67;1.20;;;;;;;20.06;85.02;97935.34;5019273;28;20033;-58
2022/08/19 07:58:00;;;;;;;4.60;1.30;;;;;;;20.11;86.38;97932.88;5008044;28;20875;-57
2022/08/19 08:00:26;;;;;;;6.55;1.58;;;;;;;20.16;84.56;97943.56;5013168;28;20133;-56
2022/08/19 08:02:52;;;;;;;3.53;1.30;;;;;;;20.16;85.12;97935.66;5007702;28;20171;-57
2022/08/19 08:10:45;;;;;;;4.80;1.30;;;;;;;20.40;83.34;97944.47;5016520;28;20129;-57
2022/08/19 08:13:11;;;;;;;3.67;1.38;;;;;;;20.29;83.77;97950.50;5017233;28;20021;-58
2022/08/19 08:15:38;;;;;;;4.20;1.20;;;;;;;20.39;84.44;97953.41;5018071;28;20084;-57
2022/08/19 08:18:03;;;;;;;4.70;1.30;;;;;;;20.38;84.60;97951.00;4999570;28;20420;-57
2022/08/19 08:20:29;;;;;;;3.88;1.30;;;;;;;20.34;85.73;97955.91;5023031;28;20040;-57
2022/08/19 08:25:38;;;;;;;2.85;1.00;;;;;;;20.29;84.98;97909.06;5015340;28;20203;-57
2022/08/19 08:28:04;;;;;;;3.45;1.27;;;;;;;20.58;85.08;97940.97;5015375;28;20945;-57
2022/08/19 08:30:30;;;;;;;3.65;1.20;;;;;;;20.67;84.03;97955.47;5019167;28;20026;-57
2022/08/19 08:32:55;;;;;;;3.30;1.30;;;;;;;20.78;83.51;97956.53;5017338;28;20030;-57
2022/08/19 08:35:22;;;;;;;4.88;1.30;;;;;;;20.89;85.23;97965.53;5014058;28;20040;-58
2022/08/19 08:37:49;;;;;;;5.75;1.20;;;;;;;20.92;83.68;97963.25;5022193;28;20033;-57
2022/08/19 08:40:27;;;;;;;3.50;1.23;;;;;;;20.99;83.05;97949.94;5016568;28;20029;-56
2022/08/19 08:43:18;;;;;;;4.13;1.27;;;;;;;20.96;81.71;97949.56;5021610;28;20037;-57
2022/08/19 08:45:49;;;;;;;3.55;1.30;;;;;;;21.10;82.13;97948.31;5022611;28;20053;-57
2022/08/19 08:48:22;;;;;;;3.40;1.10;;;;;;;21.04;81.10;97918.31;5014460;28;20038;-57
2022/08/19 08:50:52;;;;;;;4.25;1.20;;;;;;;21.14;80.28;97925.69;5015547;28;20018;-56
2022/08/19 08:53:19;;;;;;;5.55;1.15;;;;;;;21.06;79.78;97926.03;5021390;28;20087;-57
2022/08/19 08:55:45;;;;;;;3.63;1.23;;;;;;;21.27;80.94;97972.25;5021999;28;20029;-57
2022/08/19 08:58:19;;;;;;;6.35;1.48;;;;;;;21.04;80.24;97957.16;5021099;28;20033;-57
2022/08/19 09:00:46;;;;;;;3.05;1.15;;;;;;;21.08;81.43;97971.53;5021817;28;20034;-57
2022/08/19 09:03:24;;;;;;;4.25;1.10;;;;;;;21.28;80.18;97977.31;5021095;28;20030;-56
2022/08/19 09:06:01;;;;;;;5.90;1.20;;;;;;;21.35;79.76;97973.72;5022046;28;20060;-57
2022/08/19 09:08:47;;;;;;;3.10;1.10;;;;;;;21.78;78.28;97972.59;5021073;28;20057;-56
2022/08/19 09:11:20;;;;;;;3.55;1.20;;;;;;;21.78;77.54;97968.09;5018938;28;20511;-57
2022/08/19 09:13:45;;;;;;;4.78;1.23;;;;;;;21.65;78.98;97982.38;5005856;28;20106;-57
2022/08/19 09:16:20;;;;;;;6.55;1.25;;;;;;;21.75;80.21;97983.63;5017212;28;20123;-56
2022/08/19 09:18:55;;;;;;;4.68;1.20;;;;;;;21.72;79.81;97976.16;5022481;28;20060;-57
2022/08/19 09:21:22;;;;;;;3.03;1.13;;;;;;;21.88;78.37;97983.38;5018519;28;20461;-57
2022/08/19 09:23:48;;;;;;;3.47;1.30;;;;;;;22.12;78.22;97980.69;5026982;28;20021;-58
2022/08/19 09:26:16;;;;;;;4.80;1.27;;;;;;;22.06;77.61;97948.81;5021386;28;20029;-56
2022/08/19 09:28:43;;;;;;;3.30;1.38;;;;;;;22.13;77.13;97966.41;5019170;28;20165;-57
2022/08/19 09:31:29;;;;;;;4.75;1.30;;;;;;;22.05;76.52;97976.34;5020797;28;20026;-60
2022/08/19 09:33:57;;;;;;;4.15;1.20;;;;;;;22.14;76.34;97973.31;5006095;28;20080;-57
2022/08/19 09:36:24;;;;;;;3.38;1.20;;;;;;;22.43;74.69;97972.31;5019650;28;20037;-56
2022/08/19 09:38:51;;;;;;;5.28;1.20;;;;;;;22.44;76.97;97955.38;5013713;28;20037;-56
2022/08/19 09:41:21;;;;;;;3.20;1.23;;;;;;;22.78;72.72;97970.50;5004903;28;20558;-57
2022/08/19 09:43:51;;;;;;;5.68;1.58;;;;;;;22.87;74.10;97960.34;5019658;28;20029;-57
2022/08/19 09:46:20;;;;;;;3.92;1.33;;;;;;;22.80;74.14;97960.50;5019063;28;20036;-58
2022/08/19 09:48:48;;;;;;;3.00;1.17;;;;;;;22.71;73.06;97960.09;5018887;28;20036;-58
2022/08/19 09:51:16;;;;;;;4.13;1.30;;;;;;;22.58;73.69;97949.78;5014083;28;20120;-57
2022/08/19 09:53:44;;;;;;;4.97;1.20;;;;;;;22.62;73.60;97964.97;5023184;28;20067;-57
2022/08/19 09:56:09;;;;;;;4.78;1.40;;;;;;;22.64;74.72;97967.38;5019054;28;20132;-57
2022/08/19 09:58:36;;;;;;;4.60;1.58;;;;;;;22.48;76.08;97968.16;5019090;28;20567;-56
2022/08/19 10:01:02;;;;;;;4.47;1.20;;;;;;;22.31;76.17;97965.47;5001772;28;20056;-57
2022/08/19 10:03:29;;;;;;;4.10;1.40;;;;;;;22.21;77.62;97964.19;5021355;28;20026;-58
2022/08/19 10:05:56;;;;;;;4.78;1.50;;;;;;;22.20;77.85;97972.38;5019933;28;20021;-57
2022/08/19 10:08:27;;;;;;;3.85;1.40;;;;;;;22.29;77.49;97957.75;5026975;28;20025;-58
2022/08/19 10:10:54;;;;;;;3.70;1.23;;;;;;;22.37;78.18;97956.56;5003829;28;20033;-57
2022/08/19 10:13:22;;;;;;;4.75;1.35;;;;;;;;;;5018964;28;20374;-58
2022/08/19 10:15:50;;;;;;;5.47;1.40;;;;;;;22.29;77.05;97957.75;5021714;28;20026;-58
2022/08/19 10:18:19;;;;;;;4.35;1.30;;;;;;;22.21;77.76;97966.03;5024704;28;20048;-57
2022/08/19 10:20:49;;;;;;;5.07;1.30;;;;;;;21.98;78.05;97964.28;5021666;28;20029;-57
2022/08/19 10:23:15;;;;;;;4.10;1.27;;;;;;;22.05;78.62;97965.75;5049059;28;20037;-57
2022/08/19 10:25:41;;;;;;;5.03;1.40;;;;;;;21.91;78.64;97972.34;5017772;28;20025;-57
2022/08/19 10:28:07;;;;;;;3.45;1.20;;;;;;;21.91;79.21;97966.25;5021796;28;20488;-56
2022/08/19 10:30:33;;;;;;;4.60;1.38;;;;;;;21.81;81.35;97962.34;5023448;28;20041;-57
2022/08/19 10:32:59;;;;;;;4.82;1.13;;;;;;;21.77;80.31;97965.69;5010859;28;20029;-57
2022/08/19 10:35:27;;;;;;;4.35;1.30;;;;;;;21.58;82.51;97962.38;5018457;28;20723;-57
2022/08/19 10:37:52;;;;;;;5.38;1.38;;;;;;;21.36;81.68;97933.06;5021201;28;20029;-57
2022/08/19 10:40:18;;;;;;;7.72;1.48;;;;;;;21.37;83.78;97958.44;5016358;28;20079;-57
2022/08/19 10:42:44;;;;;;;4.93;1.98;;;;;;;21.02;85.75;97920.38;5021005;28;20060;-57
2022/08/19 10:45:10;;;;;;;4.25;1.60;;;;;;;21.11;86.78;97929.59;5013865;28;20350;-57
2022/08/19 10:47:36;;;;;;;4.38;1.50;;;;;;;21.10;88.17;97927.16;5046037;28;20033;-57
2022/08/19 10:52:47;;;;;;;5.05;1.80;;;;;;;21.20;88.17;97919.47;5012128;28;20044;-59
2022/08/19 10:57:58;;;;;;;5.70;1.55;;;;;;;21.45;86.11;97944.91;5010043;28;20045;-58
2022/08/19 11:00:24;;;;;;;5.20;1.50;;;;;;;21.59;87.35;97951.53;5016815;28;20037;-58
2022/08/19 11:02:50;;;;;;;4.75;1.30;;;;;;;21.62;85.12;97947.66;5017880;28;20021;-57
2022/08/19 11:05:16;;;;;;;3.92;1.30;;;;;;;21.65;83.33;97955.13;5019308;28;20884;-58
2022/08/19 11:07:42;;;;;;;5.07;1.25;;;;;;;21.64;83.62;97953.50;5016809;28;20037;-57
2022/08/19 11:10:09;;;;;;;3.13;1.10;;;;;;;21.77;82.15;97950.59;5019365;28;20025;-56
2022/08/19 11:12:38;;;;;;;3.72;1.45;;;;;;;21.90;82.18;97949.53;5005048;28;20026;-57
2022/08/19 11:15:08;;;;;;;4.68;1.92;;;;;;;21.88;82.14;97930.44;5013195;28;20048;-58
2022/08/19 11:17:35;;;;;;;4.72;1.40;;;;;;;21.88;82.15;97917.22;5016441;28;20057;-58
2022/08/19 11:20:04;;;;;;;4.10;1.25;;;;;;;22.12;79.82;97948.91;5009250;28;20751;-57
2022/08/19 11:22:29;;;;;;;5.83;1.60;;;;;;;22.08;80.02;97949.38;5014742;28;20079;-56
2022/08/19 11:24:55;;;;;;;3.72;1.42;;;;;;;22.25;80.43;97959.22;5021405;28;20667;-57
2022/08/19 11:27:20;;;;;;;4.05;1.73;;;;;;;22.13;78.18;97950.53;5002932;28;20065;-57
2022/08/19 11:29:46;;;;;;;4.28;1.15;;;;;;;22.15;77.02;97941.31;5016231;28;20399;-58
2022/08/19 11:32:12;;;;;;;4.13;1.35;;;;;;;22.17;79.36;97946.38;4994447;28;20488;-56
2022/08/19 11:34:38;;;;;;;4.13;1.40;;;;;;;22.17;78.73;97941.88;5017975;28;20013;-59
2022/08/19 11:37:05;;;;;;;4.82;1.27;;;;;;;22.30;79.88;97940.81;5017553;28;20250;-58
2022/08/19 11:39:32;;;;;;;4.32;1.23;;;;;;;22.49;77.92;97946.72;5017099;28;20032;-56
2022/08/19 11:41:59;;;;;;;3.72;1.38;;;;;;;22.54;77.06;97943.34;5015115;28;20099;-56
2022/08/19 11:44:25;;;;;;;4.47;1.27;;;;;;;22.47;77.36;97935.56;4999821;28;20064;-56
2022/08/19 11:46:52;;;;;;;6.07;1.08;;;;;;;22.43;75.32;97935.25;5011273;28;20429;-58
2022/08/19 11:49:19;;;;;;;3.78;1.20;;;;;;;22.43;75.68;97937.88;5018552;28;20464;-56
2022/08/19 11:51:45;;;;;;;2.33;0.90;;;;;;;22.08;77.17;97893.78;5017163;28;20503;-58
2022/08/19 11:54:12;;;;;;;5.32;1.00;;;;;;;22.19;77.72;97928.41;5000373;28;20801;-55
2022/08/19 11:56:38;;;;;;;3.20;1.08;;;;;;;22.23;77.18;97921.59;5013906;28;21190;-56
2022/08/19 11:59:04;;;;;;;3.80;0.93;;;;;;;22.36;75.62;97917.88;5014496;28;20026;-58